Nueve de Julio, Argentina
Current Conditions -  °F | °C
As of 10:00 PM on Saturday 22 Nov 2014 (Local Time) from SAEZ Reporting Station
Clear Clear  
Wind Chill: 20°   Ceiling: Unl
Heat Index: 20°   Visibility: 6mi
Dew Point: 11°   Wind: 5mph
Humidity: 56%   Direction: 340°NNW
Pressure: 29.88"   Gusts: NA
Location:  35.45°S, 60.87°W
Report Text: SAEZ 230100Z 34004KT CAVOK 20/11 Q1012
Loading
Personal Weather Stations






























Interactive Weather Map New forecast layout! Learn more

10-Day Weather Forecast

Advertisements
Track Severe Weather on mobile